sensor_id;sensor_type;location;lat;lon;timestamp;P1;durP1;ratioP1;P2;durP2;ratioP2
49296;SDS011;35163;48.878;18.040;2023-02-15T00:01:47;49.10;;;24.80;;
49296;SDS011;35163;48.878;18.040;2023-02-15T00:04:15;46.58;;;25.00;;
49296;SDS011;35163;48.878;18.040;2023-02-15T00:06:45;54.67;;;26.58;;
49296;SDS011;35163;48.878;18.040;2023-02-15T00:09:12;50.75;;;26.65;;
49296;SDS011;35163;48.878;18.040;2023-02-15T00:11:39;60.30;;;26.80;;
49296;SDS011;35163;48.878;18.040;2023-02-15T00:14:11;51.53;;;26.98;;
49296;SDS011;35163;48.878;18.040;2023-02-15T00:16:38;55.75;;;26.10;;
49296;SDS011;35163;48.878;18.040;2023-02-15T00:19:06;55.65;;;26.98;;
49296;SDS011;35163;48.878;18.040;2023-02-15T00:21:33;53.03;;;25.60;;
49296;SDS011;35163;48.878;18.040;2023-02-15T00:24:02;53.90;;;27.40;;
49296;SDS011;35163;48.878;18.040;2023-02-15T00:26:30;54.28;;;26.40;;
49296;SDS011;35163;48.878;18.040;2023-02-15T00:28:57;53.55;;;26.90;;
49296;SDS011;35163;48.878;18.040;2023-02-15T00:31:28;49.15;;;25.95;;
49296;SDS011;35163;48.878;18.040;2023-02-15T00:34:05;54.97;;;26.63;;
49296;SDS011;35163;48.878;18.040;2023-02-15T00:36:38;51.95;;;25.67;;
49296;SDS011;35163;48.878;18.040;2023-02-15T00:39:05;50.50;;;25.98;;
49296;SDS011;35163;48.878;18.040;2023-02-15T00:41:32;54.17;;;27.58;;
49296;SDS011;35163;48.878;18.040;2023-02-15T00:43:59;56.88;;;25.88;;
49296;SDS011;35163;48.878;18.040;2023-02-15T00:46:26;49.80;;;25.17;;
49296;SDS011;35163;48.878;18.040;2023-02-15T00:48:53;59.03;;;28.20;;
49296;SDS011;35163;48.878;18.040;2023-02-15T00:51:20;53.80;;;27.17;;
49296;SDS011;35163;48.878;18.040;2023-02-15T00:53:47;58.22;;;26.52;;
49296;SDS011;35163;48.878;18.040;2023-02-15T00:56:14;57.58;;;26.83;;
49296;SDS011;35163;48.878;18.040;2023-02-15T00:58:43;55.80;;;25.10;;
49296;SDS011;35163;48.878;18.040;2023-02-15T01:01:11;47.47;;;24.90;;
49296;SDS011;35163;48.878;18.040;2023-02-15T01:03:39;51.75;;;24.65;;
49296;SDS011;35163;48.878;18.040;2023-02-15T01:06:07;50.38;;;24.98;;
49296;SDS011;35163;48.878;18.040;2023-02-15T01:08:37;51.20;;;23.23;;
49296;SDS011;35163;48.878;18.040;2023-02-15T01:11:08;51.05;;;24.90;;
49296;SDS011;35163;48.878;18.040;2023-02-15T01:13:40;48.28;;;25.08;;
49296;SDS011;35163;48.878;18.040;2023-02-15T01:16:07;46.72;;;24.45;;
49296;SDS011;35163;48.878;18.040;2023-02-15T01:18:34;49.40;;;24.52;;
49296;SDS011;35163;48.878;18.040;2023-02-15T01:21:09;49.10;;;25.70;;
49296;SDS011;35163;48.878;18.040;2023-02-15T01:23:40;52.75;;;25.08;;
49296;SDS011;35163;48.878;18.040;2023-02-15T01:26:08;54.63;;;25.27;;
49296;SDS011;35163;48.878;18.040;2023-02-15T01:28:35;53.53;;;24.88;;
49296;SDS011;35163;48.878;18.040;2023-02-15T01:31:10;51.30;;;26.10;;
49296;SDS011;35163;48.878;18.040;2023-02-15T01:33:44;49.15;;;24.67;;
49296;SDS011;35163;48.878;18.040;2023-02-15T01:36:12;51.70;;;25.90;;
49296;SDS011;35163;48.878;18.040;2023-02-15T01:38:39;58.35;;;27.55;;
49296;SDS011;35163;48.878;18.040;2023-02-15T01:41:06;48.13;;;24.40;;
49296;SDS011;35163;48.878;18.040;2023-02-15T01:43:57;53.10;;;26.75;;
49296;SDS011;35163;48.878;18.040;2023-02-15T01:46:35;57.47;;;26.90;;
49296;SDS011;35163;48.878;18.040;2023-02-15T01:49:11;50.13;;;26.00;;
49296;SDS011;35163;48.878;18.040;2023-02-15T01:51:44;52.90;;;26.65;;
49296;SDS011;35163;48.878;18.040;2023-02-15T01:54:18;54.97;;;27.85;;
49296;SDS011;35163;48.878;18.040;2023-02-15T01:56:51;49.97;;;26.55;;
49296;SDS011;35163;48.878;18.040;2023-02-15T01:59:21;50.30;;;25.23;;
49296;SDS011;35163;48.878;18.040;2023-02-15T02:01:52;50.83;;;26.80;;
49296;SDS011;35163;48.878;18.040;2023-02-15T02:06:55;49.35;;;23.92;;
49296;SDS011;35163;48.878;18.040;2023-02-15T02:09:26;46.55;;;23.63;;
49296;SDS011;35163;48.878;18.040;2023-02-15T02:11:53;48.35;;;24.95;;
49296;SDS011;35163;48.878;18.040;2023-02-15T02:14:23;48.10;;;25.00;;
49296;SDS011;35163;48.878;18.040;2023-02-15T02:17:11;54.38;;;25.30;;
49296;SDS011;35163;48.878;18.040;2023-02-15T02:28:33;50.78;;;25.08;;
49296;SDS011;35163;48.878;18.040;2023-02-15T02:31:20;56.72;;;28.08;;
49296;SDS011;35163;48.878;18.040;2023-02-15T02:34:16;51.35;;;25.48;;
49296;SDS011;35163;48.878;18.040;2023-02-15T02:36:59;56.10;;;26.75;;
49296;SDS011;35163;48.878;18.040;2023-02-15T02:45:34;58.90;;;28.33;;
49296;SDS011;35163;48.878;18.040;2023-02-15T02:48:12;43.97;;;23.15;;
49296;SDS011;35163;48.878;18.040;2023-02-15T02:50:41;52.80;;;25.63;;
49296;SDS011;35163;48.878;18.040;2023-02-15T02:53:08;52.03;;;27.23;;
49296;SDS011;35163;48.878;18.040;2023-02-15T02:55:41;52.65;;;27.30;;
49296;SDS011;35163;48.878;18.040;2023-02-15T02:58:30;52.00;;;25.55;;
49296;SDS011;35163;48.878;18.040;2023-02-15T03:01:06;54.58;;;25.45;;
49296;SDS011;35163;48.878;18.040;2023-02-15T03:03:49;53.20;;;25.20;;
49296;SDS011;35163;48.878;18.040;2023-02-15T03:06:24;46.58;;;23.73;;
49296;SDS011;35163;48.878;18.040;2023-02-15T03:08:56;55.88;;;27.00;;
49296;SDS011;35163;48.878;18.040;2023-02-15T03:11:31;53.92;;;26.55;;
49296;SDS011;35163;48.878;18.040;2023-02-15T03:13:58;54.72;;;26.38;;
49296;SDS011;35163;48.878;18.040;2023-02-15T03:16:25;54.58;;;28.65;;
49296;SDS011;35163;48.878;18.040;2023-02-15T03:18:54;59.42;;;29.15;;
49296;SDS011;35163;48.878;18.040;2023-02-15T03:21:34;59.80;;;28.55;;
49296;SDS011;35163;48.878;18.040;2023-02-15T03:24:06;62.38;;;28.98;;
49296;SDS011;35163;48.878;18.040;2023-02-15T03:26:36;60.33;;;29.10;;
49296;SDS011;35163;48.878;18.040;2023-02-15T03:29:05;56.70;;;27.83;;
49296;SDS011;35163;48.878;18.040;2023-02-15T03:31:33;54.58;;;28.08;;
49296;SDS011;35163;48.878;18.040;2023-02-15T03:34:06;59.38;;;29.52;;
49296;SDS011;35163;48.878;18.040;2023-02-15T03:36:44;66.30;;;30.75;;
49296;SDS011;35163;48.878;18.040;2023-02-15T03:39:25;58.30;;;30.15;;
49296;SDS011;35163;48.878;18.040;2023-02-15T03:42:09;62.15;;;30.05;;
49296;SDS011;35163;48.878;18.040;2023-02-15T03:44:54;55.65;;;29.27;;
49296;SDS011;35163;48.878;18.040;2023-02-15T03:47:41;60.30;;;29.77;;
49296;SDS011;35163;48.878;18.040;2023-02-15T03:50:22;59.92;;;30.92;;
49296;SDS011;35163;48.878;18.040;2023-02-15T03:53:14;66.97;;;31.80;;
49296;SDS011;35163;48.878;18.040;2023-02-15T03:55:47;58.03;;;30.20;;
49296;SDS011;35163;48.878;18.040;2023-02-15T03:58:15;57.25;;;30.70;;
49296;SDS011;35163;48.878;18.040;2023-02-15T04:01:06;67.75;;;32.28;;
49296;SDS011;35163;48.878;18.040;2023-02-15T04:04:16;62.72;;;31.23;;
49296;SDS011;35163;48.878;18.040;2023-02-15T04:06:45;61.97;;;31.58;;
49296;SDS011;35163;48.878;18.040;2023-02-15T04:09:12;62.70;;;31.75;;
49296;SDS011;35163;48.878;18.040;2023-02-15T04:12:01;57.38;;;30.02;;
49296;SDS011;35163;48.878;18.040;2023-02-15T04:14:28;65.53;;;31.98;;
49296;SDS011;35163;48.878;18.040;2023-02-15T04:17:13;57.30;;;29.80;;
49296;SDS011;35163;48.878;18.040;2023-02-15T04:19:40;57.95;;;29.75;;
49296;SDS011;35163;48.878;18.040;2023-02-15T04:22:25;63.15;;;33.90;;
49296;SDS011;35163;48.878;18.040;2023-02-15T04:25:10;68.68;;;31.73;;
49296;SDS011;35163;48.878;18.040;2023-02-15T04:27:41;64.60;;;31.58;;
49296;SDS011;35163;48.878;18.040;2023-02-15T04:30:09;65.40;;;31.73;;
49296;SDS011;35163;48.878;18.040;2023-02-15T04:32:36;63.95;;;31.27;;
49296;SDS011;35163;48.878;18.040;2023-02-15T04:35:04;61.47;;;30.73;;
49296;SDS011;35163;48.878;18.040;2023-02-15T04:37:44;54.95;;;29.77;;
49296;SDS011;35163;48.878;18.040;2023-02-15T04:40:12;58.28;;;29.45;;
49296;SDS011;35163;48.878;18.040;2023-02-15T04:42:43;63.83;;;30.98;;
49296;SDS011;35163;48.878;18.040;2023-02-15T04:45:10;57.70;;;28.58;;
49296;SDS011;35163;48.878;18.040;2023-02-15T04:47:37;62.28;;;30.63;;
49296;SDS011;35163;48.878;18.040;2023-02-15T04:50:03;60.88;;;28.77;;
49296;SDS011;35163;48.878;18.040;2023-02-15T04:52:30;62.45;;;29.83;;
49296;SDS011;35163;48.878;18.040;2023-02-15T04:54:57;61.30;;;31.25;;
49296;SDS011;35163;48.878;18.040;2023-02-15T04:57:24;65.13;;;31.38;;
49296;SDS011;35163;48.878;18.040;2023-02-15T04:59:50;62.28;;;31.60;;
49296;SDS011;35163;48.878;18.040;2023-02-15T05:02:17;56.80;;;30.98;;
49296;SDS011;35163;48.878;18.040;2023-02-15T05:04:44;66.70;;;33.10;;
49296;SDS011;35163;48.878;18.040;2023-02-15T05:07:16;56.00;;;29.20;;
49296;SDS011;35163;48.878;18.040;2023-02-15T05:09:44;63.30;;;29.95;;
49296;SDS011;35163;48.878;18.040;2023-02-15T05:12:10;60.22;;;29.30;;
49296;SDS011;35163;48.878;18.040;2023-02-15T05:14:37;58.65;;;30.38;;
49296;SDS011;35163;48.878;18.040;2023-02-15T05:17:03;61.65;;;31.98;;
49296;SDS011;35163;48.878;18.040;2023-02-15T05:19:31;57.10;;;27.85;;
49296;SDS011;35163;48.878;18.040;2023-02-15T05:21:58;62.90;;;28.58;;
49296;SDS011;35163;48.878;18.040;2023-02-15T05:24:25;59.75;;;28.45;;
49296;SDS011;35163;48.878;18.040;2023-02-15T05:29:56;58.63;;;28.83;;
49296;SDS011;35163;48.878;18.040;2023-02-15T05:32:23;58.33;;;29.88;;
49296;SDS011;35163;48.878;18.040;2023-02-15T05:34:50;66.93;;;29.00;;
49296;SDS011;35163;48.878;18.040;2023-02-15T05:37:16;65.55;;;29.80;;
49296;SDS011;35163;48.878;18.040;2023-02-15T05:39:43;59.70;;;28.92;;
49296;SDS011;35163;48.878;18.040;2023-02-15T05:42:09;59.05;;;30.70;;
49296;SDS011;35163;48.878;18.040;2023-02-15T05:44:36;62.20;;;30.45;;
49296;SDS011;35163;48.878;18.040;2023-02-15T05:47:02;59.65;;;28.10;;
49296;SDS011;35163;48.878;18.040;2023-02-15T05:49:29;60.20;;;31.88;;
49296;SDS011;35163;48.878;18.040;2023-02-15T05:51:56;65.15;;;29.17;;
49296;SDS011;35163;48.878;18.040;2023-02-15T05:54:23;59.40;;;28.77;;
49296;SDS011;35163;48.878;18.040;2023-02-15T05:56:49;58.22;;;29.90;;
49296;SDS011;35163;48.878;18.040;2023-02-15T05:59:16;58.17;;;28.67;;
49296;SDS011;35163;48.878;18.040;2023-02-15T06:01:43;58.05;;;28.15;;
49296;SDS011;35163;48.878;18.040;2023-02-15T06:04:09;109.50;;;55.30;;
49296;SDS011;35163;48.878;18.040;2023-02-15T06:06:36;76.38;;;36.95;;
49296;SDS011;35163;48.878;18.040;2023-02-15T06:09:03;84.38;;;41.58;;
49296;SDS011;35163;48.878;18.040;2023-02-15T06:11:30;73.70;;;34.80;;
49296;SDS011;35163;48.878;18.040;2023-02-15T06:13:56;60.53;;;30.42;;
49296;SDS011;35163;48.878;18.040;2023-02-15T06:16:23;57.85;;;29.55;;
49296;SDS011;35163;48.878;18.040;2023-02-15T06:18:49;58.90;;;30.73;;
49296;SDS011;35163;48.878;18.040;2023-02-15T06:21:18;58.25;;;31.15;;
49296;SDS011;35163;48.878;18.040;2023-02-15T06:23:45;59.95;;;30.65;;
49296;SDS011;35163;48.878;18.040;2023-02-15T06:26:12;59.33;;;29.38;;
49296;SDS011;35163;48.878;18.040;2023-02-15T06:28:38;58.40;;;28.98;;
49296;SDS011;35163;48.878;18.040;2023-02-15T06:31:07;62.08;;;28.65;;
49296;SDS011;35163;48.878;18.040;2023-02-15T06:33:34;64.65;;;31.98;;
49296;SDS011;35163;48.878;18.040;2023-02-15T06:36:01;66.05;;;31.48;;
49296;SDS011;35163;48.878;18.040;2023-02-15T06:38:29;61.72;;;31.08;;
49296;SDS011;35163;48.878;18.040;2023-02-15T06:40:55;68.15;;;30.85;;
49296;SDS011;35163;48.878;18.040;2023-02-15T06:43:22;59.30;;;29.40;;
49296;SDS011;35163;48.878;18.040;2023-02-15T06:45:49;59.30;;;31.08;;
49296;SDS011;35163;48.878;18.040;2023-02-15T06:48:15;57.30;;;30.00;;
49296;SDS011;35163;48.878;18.040;2023-02-15T06:50:42;91.15;;;38.55;;
49296;SDS011;35163;48.878;18.040;2023-02-15T06:53:08;77.60;;;38.22;;
49296;SDS011;35163;48.878;18.040;2023-02-15T06:55:35;76.05;;;34.03;;
49296;SDS011;35163;48.878;18.040;2023-02-15T06:58:02;64.82;;;31.58;;
49296;SDS011;35163;48.878;18.040;2023-02-15T07:00:28;58.50;;;31.15;;
49296;SDS011;35163;48.878;18.040;2023-02-15T07:02:57;58.22;;;29.60;;
49296;SDS011;35163;48.878;18.040;2023-02-15T07:05:25;52.78;;;28.35;;
49296;SDS011;35163;48.878;18.040;2023-02-15T07:07:57;50.38;;;25.67;;
49296;SDS011;35163;48.878;18.040;2023-02-15T07:10:25;58.90;;;28.20;;
49296;SDS011;35163;48.878;18.040;2023-02-15T07:12:52;48.78;;;25.35;;
49296;SDS011;35163;48.878;18.040;2023-02-15T07:15:19;58.97;;;28.50;;
49296;SDS011;35163;48.878;18.040;2023-02-15T07:17:47;55.28;;;29.20;;
49296;SDS011;35163;48.878;18.040;2023-02-15T07:20:16;48.33;;;25.85;;
49296;SDS011;35163;48.878;18.040;2023-02-15T07:22:45;58.17;;;25.73;;
49296;SDS011;35163;48.878;18.040;2023-02-15T07:25:12;48.67;;;25.15;;
49296;SDS011;35163;48.878;18.040;2023-02-15T07:27:39;51.03;;;26.20;;
49296;SDS011;35163;48.878;18.040;2023-02-15T07:30:07;51.33;;;26.33;;
49296;SDS011;35163;48.878;18.040;2023-02-15T07:32:35;63.95;;;26.60;;
49296;SDS011;35163;48.878;18.040;2023-02-15T07:35:02;52.47;;;26.88;;
49296;SDS011;35163;48.878;18.040;2023-02-15T07:37:29;60.08;;;27.52;;
49296;SDS011;35163;48.878;18.040;2023-02-15T07:39:55;58.67;;;27.63;;
49296;SDS011;35163;48.878;18.040;2023-02-15T07:42:22;57.53;;;28.88;;
49296;SDS011;35163;48.878;18.040;2023-02-15T07:44:49;57.08;;;26.98;;
49296;SDS011;35163;48.878;18.040;2023-02-15T07:47:15;53.80;;;27.27;;
49296;SDS011;35163;48.878;18.040;2023-02-15T07:49:42;55.53;;;28.52;;
49296;SDS011;35163;48.878;18.040;2023-02-15T07:52:09;58.28;;;28.00;;
49296;SDS011;35163;48.878;18.040;2023-02-15T07:54:35;59.83;;;30.27;;
49296;SDS011;35163;48.878;18.040;2023-02-15T07:57:02;57.05;;;30.58;;
49296;SDS011;35163;48.878;18.040;2023-02-15T07:59:28;65.35;;;30.70;;
49296;SDS011;35163;48.878;18.040;2023-02-15T08:01:55;59.15;;;30.25;;
49296;SDS011;35163;48.878;18.040;2023-02-15T08:04:23;56.95;;;29.38;;
49296;SDS011;35163;48.878;18.040;2023-02-15T08:06:53;57.97;;;29.25;;
49296;SDS011;35163;48.878;18.040;2023-02-15T08:09:21;60.33;;;30.33;;
49296;SDS011;35163;48.878;18.040;2023-02-15T08:11:47;58.17;;;29.40;;
49296;SDS011;35163;48.878;18.040;2023-02-15T08:14:16;49.65;;;26.85;;
49296;SDS011;35163;48.878;18.040;2023-02-15T08:16:53;56.63;;;27.42;;
49296;SDS011;35163;48.878;18.040;2023-02-15T08:19:23;53.83;;;26.45;;
49296;SDS011;35163;48.878;18.040;2023-02-15T08:21:54;53.80;;;26.83;;
49296;SDS011;35163;48.878;18.040;2023-02-15T08:24:27;53.33;;;27.40;;
49296;SDS011;35163;48.878;18.040;2023-02-15T08:26:55;50.47;;;26.85;;
49296;SDS011;35163;48.878;18.040;2023-02-15T08:29:23;52.22;;;26.63;;
49296;SDS011;35163;48.878;18.040;2023-02-15T08:31:56;51.72;;;26.45;;
49296;SDS011;35163;48.878;18.040;2023-02-15T08:34:31;56.22;;;28.83;;
49296;SDS011;35163;48.878;18.040;2023-02-15T08:37:04;61.72;;;26.73;;
49296;SDS011;35163;48.878;18.040;2023-02-15T08:39:32;54.25;;;27.48;;
49296;SDS011;35163;48.878;18.040;2023-02-15T08:41:59;56.53;;;29.02;;
49296;SDS011;35163;48.878;18.040;2023-02-15T08:44:26;57.38;;;28.48;;
49296;SDS011;35163;48.878;18.040;2023-02-15T08:46:52;55.03;;;29.40;;
49296;SDS011;35163;48.878;18.040;2023-02-15T08:49:21;56.55;;;26.58;;
49296;SDS011;35163;48.878;18.040;2023-02-15T08:51:48;57.03;;;28.95;;
49296;SDS011;35163;48.878;18.040;2023-02-15T08:54:16;55.20;;;29.73;;
49296;SDS011;35163;48.878;18.040;2023-02-15T08:56:44;53.15;;;28.65;;
49296;SDS011;35163;48.878;18.040;2023-02-15T08:59:13;56.83;;;30.65;;
49296;SDS011;35163;48.878;18.040;2023-02-15T09:01:42;53.28;;;27.48;;
49296;SDS011;35163;48.878;18.040;2023-02-15T09:04:09;55.42;;;27.65;;
49296;SDS011;35163;48.878;18.040;2023-02-15T09:06:36;56.03;;;28.63;;
49296;SDS011;35163;48.878;18.040;2023-02-15T09:09:04;63.38;;;30.33;;
49296;SDS011;35163;48.878;18.040;2023-02-15T09:11:36;51.63;;;28.10;;
49296;SDS011;35163;48.878;18.040;2023-02-15T09:14:06;49.95;;;27.33;;
49296;SDS011;35163;48.878;18.040;2023-02-15T09:16:40;53.42;;;26.48;;
49296;SDS011;35163;48.878;18.040;2023-02-15T09:19:07;47.13;;;24.60;;
49296;SDS011;35163;48.878;18.040;2023-02-15T09:21:36;50.28;;;24.00;;
49296;SDS011;35163;48.878;18.040;2023-02-15T09:24:05;47.38;;;25.30;;
49296;SDS011;35163;48.878;18.040;2023-02-15T09:26:34;56.35;;;26.00;;
49296;SDS011;35163;48.878;18.040;2023-02-15T09:29:03;46.33;;;24.27;;
49296;SDS011;35163;48.878;18.040;2023-02-15T09:31:31;60.75;;;30.05;;
49296;SDS011;35163;48.878;18.040;2023-02-15T09:34:00;48.83;;;26.13;;
49296;SDS011;35163;48.878;18.040;2023-02-15T09:36:31;51.28;;;25.70;;
49296;SDS011;35163;48.878;18.040;2023-02-15T09:44:57;43.10;;;23.02;;
49296;SDS011;35163;48.878;18.040;2023-02-15T09:50:25;40.35;;;20.88;;
49296;SDS011;35163;48.878;18.040;2023-02-15T09:58:39;43.27;;;20.93;;
49296;SDS011;35163;48.878;18.040;2023-02-15T10:01:18;36.90;;;20.05;;
49296;SDS011;35163;48.878;18.040;2023-02-15T10:04:14;37.83;;;19.60;;
49296;SDS011;35163;48.878;18.040;2023-02-15T10:11:03;44.05;;;21.23;;
49296;SDS011;35163;48.878;18.040;2023-02-15T10:26:46;31.45;;;16.73;;
49296;SDS011;35163;48.878;18.040;2023-02-15T10:29:31;42.33;;;21.38;;
49296;SDS011;35163;48.878;18.040;2023-02-15T10:34:39;33.92;;;18.27;;
49296;SDS011;35163;48.878;18.040;2023-02-15T10:45:26;35.38;;;19.00;;
49296;SDS011;35163;48.878;18.040;2023-02-15T10:51:08;40.22;;;17.13;;
49296;SDS011;35163;48.878;18.040;2023-02-15T10:53:51;34.42;;;16.92;;
49296;SDS011;35163;48.878;18.040;2023-02-15T10:56:23;33.63;;;18.10;;
49296;SDS011;35163;48.878;18.040;2023-02-15T10:59:06;30.42;;;15.93;;
49296;SDS011;35163;48.878;18.040;2023-02-15T11:02:04;33.53;;;17.55;;
49296;SDS011;35163;48.878;18.040;2023-02-15T11:04:53;35.47;;;17.30;;
49296;SDS011;35163;48.878;18.040;2023-02-15T11:07:28;35.67;;;16.17;;
49296;SDS011;35163;48.878;18.040;2023-02-15T11:10:05;33.20;;;18.35;;
49296;SDS011;35163;48.878;18.040;2023-02-15T11:12:48;46.05;;;22.88;;
49296;SDS011;35163;48.878;18.040;2023-02-15T11:15:19;38.70;;;20.55;;
49296;SDS011;35163;48.878;18.040;2023-02-15T11:17:58;46.83;;;24.48;;
49296;SDS011;35163;48.878;18.040;2023-02-15T11:23:02;38.38;;;22.52;;
49296;SDS011;35163;48.878;18.040;2023-02-15T11:25:33;38.15;;;20.88;;
49296;SDS011;35163;48.878;18.040;2023-02-15T11:28:03;35.58;;;20.13;;
49296;SDS011;35163;48.878;18.040;2023-02-15T11:30:40;44.17;;;22.15;;
49296;SDS011;35163;48.878;18.040;2023-02-15T11:33:15;37.30;;;20.25;;
49296;SDS011;35163;48.878;18.040;2023-02-15T11:35:53;35.53;;;19.45;;
49296;SDS011;35163;48.878;18.040;2023-02-15T11:38:31;34.53;;;18.55;;
49296;SDS011;35163;48.878;18.040;2023-02-15T11:46:07;35.95;;;19.67;;
49296;SDS011;35163;48.878;18.040;2023-02-15T11:48:37;37.70;;;19.88;;
49296;SDS011;35163;48.878;18.040;2023-02-15T11:51:04;35.00;;;19.23;;
49296;SDS011;35163;48.878;18.040;2023-02-15T11:53:32;34.83;;;20.50;;
49296;SDS011;35163;48.878;18.040;2023-02-15T11:56:02;39.60;;;21.50;;
49296;SDS011;35163;48.878;18.040;2023-02-15T11:58:33;42.72;;;21.90;;
49296;SDS011;35163;48.878;18.040;2023-02-15T12:01:15;37.45;;;20.70;;
49296;SDS011;35163;48.878;18.040;2023-02-15T12:04:04;38.20;;;20.60;;
49296;SDS011;35163;48.878;18.040;2023-02-15T12:06:37;44.90;;;23.85;;
49296;SDS011;35163;48.878;18.040;2023-02-15T12:14:54;37.05;;;19.83;;
49296;SDS011;35163;48.878;18.040;2023-02-15T12:17:24;42.92;;;23.23;;
49296;SDS011;35163;48.878;18.040;2023-02-15T12:19:55;42.83;;;21.65;;
49296;SDS011;35163;48.878;18.040;2023-02-15T12:22:25;43.97;;;22.27;;
49296;SDS011;35163;48.878;18.040;2023-02-15T12:24:55;40.13;;;22.55;;
49296;SDS011;35163;48.878;18.040;2023-02-15T12:27:29;45.70;;;21.55;;
49296;SDS011;35163;48.878;18.040;2023-02-15T12:30:04;38.70;;;22.08;;
49296;SDS011;35163;48.878;18.040;2023-02-15T12:32:46;39.67;;;21.63;;
49296;SDS011;35163;48.878;18.040;2023-02-15T12:35:35;43.05;;;22.00;;
49296;SDS011;35163;48.878;18.040;2023-02-15T12:40:36;41.72;;;22.75;;
49296;SDS011;35163;48.878;18.040;2023-02-15T12:43:04;36.88;;;21.70;;
49296;SDS011;35163;48.878;18.040;2023-02-15T12:45:36;39.97;;;22.88;;
49296;SDS011;35163;48.878;18.040;2023-02-15T12:48:37;39.20;;;20.13;;
49296;SDS011;35163;48.878;18.040;2023-02-15T12:50:56;40.70;;;23.75;;
49296;SDS011;35163;48.878;18.040;2023-02-15T12:53:35;50.53;;;25.52;;
49296;SDS011;35163;48.878;18.040;2023-02-15T12:56:04;39.63;;;22.05;;
49296;SDS011;35163;48.878;18.040;2023-02-15T12:58:33;38.75;;;22.30;;
49296;SDS011;35163;48.878;18.040;2023-02-15T13:01:12;42.47;;;23.13;;
49296;SDS011;35163;48.878;18.040;2023-02-15T13:03:58;45.50;;;23.10;;
49296;SDS011;35163;48.878;18.040;2023-02-15T13:06:27;53.80;;;25.40;;
49296;SDS011;35163;48.878;18.040;2023-02-15T13:09:12;41.88;;;23.38;;
49296;SDS011;35163;48.878;18.040;2023-02-15T13:11:43;42.05;;;23.00;;
49296;SDS011;35163;48.878;18.040;2023-02-15T13:14:21;48.40;;;25.90;;
49296;SDS011;35163;48.878;18.040;2023-02-15T13:16:56;44.22;;;25.13;;
49296;SDS011;35163;48.878;18.040;2023-02-15T13:19:33;44.28;;;24.02;;
49296;SDS011;35163;48.878;18.040;2023-02-15T13:22:06;44.50;;;24.58;;
49296;SDS011;35163;48.878;18.040;2023-02-15T13:24:39;46.58;;;25.10;;
49296;SDS011;35163;48.878;18.040;2023-02-15T13:27:12;47.58;;;26.38;;
49296;SDS011;35163;48.878;18.040;2023-02-15T13:29:48;49.58;;;26.42;;
49296;SDS011;35163;48.878;18.040;2023-02-15T13:34:58;48.75;;;28.52;;
49296;SDS011;35163;48.878;18.040;2023-02-15T13:40:09;52.25;;;29.00;;
49296;SDS011;35163;48.878;18.040;2023-02-15T13:53:27;50.95;;;29.67;;
49296;SDS011;35163;48.878;18.040;2023-02-15T13:58:55;50.03;;;26.95;;
49296;SDS011;35163;48.878;18.040;2023-02-15T14:01:41;52.67;;;27.20;;
49296;SDS011;35163;48.878;18.040;2023-02-15T14:04:25;59.65;;;30.08;;
49296;SDS011;35163;48.878;18.040;2023-02-15T14:07:24;49.60;;;28.77;;
49296;SDS011;35163;48.878;18.040;2023-02-15T14:10:00;56.08;;;27.98;;
49296;SDS011;35163;48.878;18.040;2023-02-15T14:12:34;48.10;;;27.40;;
49296;SDS011;35163;48.878;18.040;2023-02-15T14:21:08;49.28;;;27.00;;
49296;SDS011;35163;48.878;18.040;2023-02-15T14:23:43;47.28;;;25.67;;
49296;SDS011;35163;48.878;18.040;2023-02-15T14:29:13;42.00;;;22.85;;
49296;SDS011;35163;48.878;18.040;2023-02-15T14:31:47;49.40;;;24.70;;
49296;SDS011;35163;48.878;18.040;2023-02-15T14:34:22;44.72;;;23.40;;
49296;SDS011;35163;48.878;18.040;2023-02-15T14:36:52;42.88;;;23.40;;
49296;SDS011;35163;48.878;18.040;2023-02-15T14:39:36;47.95;;;23.60;;
49296;SDS011;35163;48.878;18.040;2023-02-15T14:42:48;47.05;;;24.88;;
49296;SDS011;35163;48.878;18.040;2023-02-15T14:48:12;48.45;;;23.58;;
49296;SDS011;35163;48.878;18.040;2023-02-15T14:50:48;44.90;;;24.15;;
49296;SDS011;35163;48.878;18.040;2023-02-15T14:56:13;41.42;;;23.85;;
49296;SDS011;35163;48.878;18.040;2023-02-15T15:01:33;50.55;;;24.42;;
49296;SDS011;35163;48.878;18.040;2023-02-15T15:04:04;47.40;;;25.42;;
49296;SDS011;35163;48.878;18.040;2023-02-15T15:06:36;50.22;;;25.88;;
49296;SDS011;35163;48.878;18.040;2023-02-15T15:09:13;46.28;;;24.42;;
49296;SDS011;35163;48.878;18.040;2023-02-15T15:11:47;43.90;;;23.77;;
49296;SDS011;35163;48.878;18.040;2023-02-15T15:17:01;46.75;;;23.38;;
49296;SDS011;35163;48.878;18.040;2023-02-15T15:22:18;46.50;;;24.27;;
49296;SDS011;35163;48.878;18.040;2023-02-15T15:24:47;45.42;;;24.52;;
49296;SDS011;35163;48.878;18.040;2023-02-15T15:41:43;46.60;;;23.75;;
49296;SDS011;35163;48.878;18.040;2023-02-15T15:49:24;46.63;;;24.17;;
49296;SDS011;35163;48.878;18.040;2023-02-15T15:51:55;43.47;;;24.60;;
49296;SDS011;35163;48.878;18.040;2023-02-15T15:54:22;45.85;;;24.98;;
49296;SDS011;35163;48.878;18.040;2023-02-15T15:56:55;47.97;;;24.38;;
49296;SDS011;35163;48.878;18.040;2023-02-15T15:59:28;51.22;;;24.98;;
49296;SDS011;35163;48.878;18.040;2023-02-15T16:02:03;49.67;;;24.20;;
49296;SDS011;35163;48.878;18.040;2023-02-15T16:04:32;50.20;;;24.20;;
49296;SDS011;35163;48.878;18.040;2023-02-15T16:07:23;51.58;;;25.67;;
49296;SDS011;35163;48.878;18.040;2023-02-15T16:10:03;51.58;;;26.83;;
49296;SDS011;35163;48.878;18.040;2023-02-15T16:12:36;55.38;;;26.73;;
49296;SDS011;35163;48.878;18.040;2023-02-15T16:15:15;50.40;;;24.50;;
49296;SDS011;35163;48.878;18.040;2023-02-15T16:17:46;52.58;;;26.80;;
49296;SDS011;35163;48.878;18.040;2023-02-15T16:20:16;52.00;;;25.40;;
49296;SDS011;35163;48.878;18.040;2023-02-15T16:22:46;56.78;;;27.85;;
49296;SDS011;35163;48.878;18.040;2023-02-15T16:28:05;50.92;;;26.65;;
49296;SDS011;35163;48.878;18.040;2023-02-15T16:30:34;50.83;;;25.00;;
49296;SDS011;35163;48.878;18.040;2023-02-15T16:38:34;60.33;;;25.60;;
49296;SDS011;35163;48.878;18.040;2023-02-15T16:41:21;54.88;;;26.33;;
49296;SDS011;35163;48.878;18.040;2023-02-15T16:43:51;51.70;;;25.52;;
49296;SDS011;35163;48.878;18.040;2023-02-15T16:46:23;55.72;;;27.42;;
49296;SDS011;35163;48.878;18.040;2023-02-15T16:48:51;52.38;;;24.70;;
49296;SDS011;35163;48.878;18.040;2023-02-15T16:51:21;61.33;;;26.48;;
49296;SDS011;35163;48.878;18.040;2023-02-15T16:53:54;53.65;;;27.25;;
49296;SDS011;35163;48.878;18.040;2023-02-15T16:56:25;58.08;;;27.92;;
49296;SDS011;35163;48.878;18.040;2023-02-15T16:58:54;52.08;;;26.35;;
49296;SDS011;35163;48.878;18.040;2023-02-15T17:01:27;52.38;;;25.63;;
49296;SDS011;35163;48.878;18.040;2023-02-15T17:04:13;53.78;;;;;
49296;SDS011;35163;48.878;18.040;2023-02-15T17:07:22;54.90;;;26.92;;
49296;SDS011;35163;48.878;18.040;2023-02-15T17:09:50;57.75;;;27.10;;